Dugspur, Virginia
Current Conditions -  °F | °C
As of 5:55 AM on Sunday 23 Nov 2014 (Local Time) from KHLX Reporting Station
Clear Clear  
Wind Chill: 38°   Ceiling: Unl
Heat Index: 43°   Visibility: 10mi
Dew Point: 28°   Wind: 8mph
Humidity: 56%   Direction: 180°S
Pressure: 30.21"   Gusts: NA
Location:  36.82°N, 80.61°W
Report Text: KHLX 231055Z AUTO 18007KT 10SM CLR 06/M02 A3021 RMK AO2 T00591023
Loading
Personal Weather Stations






























Interactive Weather Map New forecast layout! Learn more

10-Day Weather Forecast

Advertisements
Track Severe Weather on mobile